Terminal Aerodrome Forecast
Issued by NWS Spokane, WA

Home | Current Version | Previous Version | Text Only | Print | Product List | Glossary On
Versions: 1 2 3 4 5 6 7 8 9 10 11 12 13 14 15
000
FTUS46 KOTX 212346
TAFGEG
TAF
KGEG 212346Z 2200/2224 08005KT P6SM BKN040 OVC080
     FM220600 11005KT 4SM -SN OVC015
     FM221200 12005KT P6SM OVC007
     FM221600 12006KT P6SM SCT008 BKN050 OVC100
     FM222100 15007KT P6SM -RASN OVC025=

USA.gov is the U.S. government's official web portal to all federal, state and local government web resources and services.